Gaylord, Minnesota
Current Conditions -  °F | °C
As of 8:13 AM on Friday 24 Oct 2014 (Local Time) from KGYL Reporting Station
Clear Clear  
Wind Chill: 50°   Ceiling: Unl
Heat Index: 50°   Visibility: 10mi
Dew Point: 46°   Wind: 0mph
Humidity: 86%   Direction: NA
Pressure: 29.85"   Gusts: NA
Location:  44.55°N, 94.22°W
Report Text: KGYL 241313Z AUTO 00000KT 10SM CLR 10/08 A2985 RMK AO2 T01000077
Loading
Personal Weather Stations






























Interactive Weather Map
Tropical Storm Tracking
New forecast layout! Learn more

10-Day Weather Forecast

Advertisements
Track Severe Weather on mobile